Racecast

Shelby Schuberg

Umoja (CA) · - · Compare head to head

Athlete rating 114.1 2019 TF season
Best race 128.6 TF
Races 92
Seasons 6 2014 — 2019

RankedNation #12662·CA #1025·Team #32 ?

Rating scale ?
Speed rating — all races

Track & Field

TF speed rating

2019 TF 102.9

Umoja (CA) · Grade -

Date Meet Event Result Place Rating Difficulty PR/SR Flags
2019-07-07 USATF Region 16 Junior Olympic Championships 1500m 6:25.67 38th · 2nd on team 67.7 -0.024
2019-07-07 USATF Region 16 Junior Olympic Championships 800m 2:54.15 36th · 3rd on team 72.0 -0.024
2019-07-07 USATF Region 16 Junior Olympic Championships 400m 1:13.33 51st · 5th on team -0.024
2019-06-23 Shor/Shepard 800m 2:59.42 17th · 5th on team 112.2 -0.035
2019-06-23 Shor/Shepard 1500m 6:31.35 11th · 2nd on team 106.4 -0.035
2019-06-23 Shor/Shepard 400m 1:11.81 38th · 11th on team -0.035 ★PR SR
2019-05-26 Tom Moore Youth Invitational (Central Valley Roadrunners) 800m 2:51.87 21st · 2nd on team 118.2 -0.023 ★PR SR RSR
2019-05-26 Tom Moore Youth Invitational (Central Valley Roadrunners) 400m 1:13.2 35th · 4th on team -0.023 SR
2019-05-19 3M Invitational 400m 1:20.13 65th · 8th on team -0.036
2019-05-19 3M Invitational 800m 2:54.66 21st · 1st on team 114.9 -0.036 SR RSR
2019-05-05 Running Rebels Invitational javelin DNS -0.038
2019-05-05 Running Rebels Invitational 1500m 6:47.67 7th · 1st on team 101.8 -0.038
2019-05-05 Running Rebels Invitational 400m 1:14.13 47th · 4th on team -0.038 SR
2019-05-05 Running Rebels Invitational 3000m 14:11.02 7th · 1st on team 105.8 -0.038 SR
2019-05-05 Running Rebels Invitational 800m 3:02.34 24th · 3rd on team 110.1 -0.038 SR
2019-04-13 CATC 800m 3:03.86 10th · 2nd on team 109.6 -0.033 SR RSR
2019-04-13 CATC 400m 1:16.82 30th · 5th on team -0.033 SR
2019-04-13 CATC 1500m 6:07.16 3rd · 1st on team 113.6 -0.033 SR RSR

2018 TF 115.2

Umoja (CA) · Grade -

Date Meet Event Result Place Rating Difficulty PR/SR Flags
2018-06-24 USATF Pacific Association Junior Olympic Championships 1500m 6:03.98 13th · 1st on team 115.4 -0.025
2018-06-10 Pacific Association Championships (Youth) 400m 1:16.26 26th · 7th on team -0.036
2018-06-10 Pacific Association Championships (Youth) 800m 2:51.95 17th · 4th on team 116.7 -0.036 PR SR
2018-05-27 LA Jets 34th Invitational 1500m 5:45.39 20th · 1st on team 119.6 -0.041 ★PR SR RSR
2018-05-27 LA Jets 34th Invitational 800m 2:52.95 30th · 1st on team 115.4 -0.041 PR SR
2018-05-20 3M TC Invitational 1500m 5:52.2 11th · 1st on team 118.8 -0.028 PR SR RSR
2018-04-28 Revolution Express Track Club AAU Youth Meet 1500m 6:15.34 6th · 1st on team 111.9 -0.024 SR
2018-04-28 Revolution Express Track Club AAU Youth Meet 800m 2:56.46 4th · 1st on team 115.2 -0.024 SR RSR
2018-04-28 Revolution Express Track Club AAU Youth Meet 400m 1:12.62 15th · 3rd on team -0.024 PR SR
2018-04-07 Speed Showcase 3000m 13:30.93 6th · 1st on team 112.2 -0.031 ★PR SR RSR
2018-04-07 Speed Showcase 400m 1:20.43 31st · 3rd on team -0.031 SR
2018-04-07 Speed Showcase 800m 3:02.11 13th · 1st on team 111.4 -0.031 SR

2017 TF 120.7

Umoja (CA) · Grade -

Date Meet Event Result Place Rating Difficulty PR/SR Flags
2017-05-28 33rd Annual Los Angeles Jets Invitational 800m 3:12.16 42nd · 1st on team 117.0 -0.035
2017-05-28 33rd Annual Los Angeles Jets Invitational 1500m 6:17.39 36th · 1st on team 121.2 -0.035
2017-05-28 33rd Annual Los Angeles Jets Invitational 400m 1:18.24 59th · 3rd on team -0.035
2017-05-07 Hercules/Running Rebels USATF PA Youth T&F 400m 1:16 22nd · 1st on team -0.038 SR
2017-05-07 Hercules/Running Rebels USATF PA Youth T&F 1500m 6:27.1 9th · 1st on team 117.3 -0.038
2017-05-07 Hercules/Running Rebels USATF PA Youth T&F 800m 2:54.78 9th · 2nd on team 127.8 -0.038 PR SR RSR
2017-04-22 Shor/Sheppard USATF PA Youth T&F 1500m 6:18.86 12th · 1st on team 120.3 -0.035
2017-04-22 Shor/Sheppard USATF PA Youth T&F 800m 3:11.02 16th · 3rd on team 117.4 -0.035
2017-04-22 Shor/Sheppard USATF PA Youth T&F 400m 1:16.21 31st · 5th on team -0.035 SR
2017-04-15 C. A. Track Club Youth Meet - Registration on CoachO.com 1500m 6:09.57 3rd · 1st on team 122.7 -0.038 PR SR RSR
2017-04-15 C. A. Track Club Youth Meet - Registration on CoachO.com 400m 1:19.52 21st · 3rd on team -0.038 SR
2017-04-15 C. A. Track Club Youth Meet - Registration on CoachO.com 800m 3:03.24 6th · 1st on team 121.7 -0.038 SR

2016 TF 122.5

Umoja (CA) · Grade -

Date Meet Event Result Place Rating Difficulty PR/SR Flags
2016-06-12 USATF Pacific Association Youth Championship 400m 1:17.74 21st · 3rd on team -0.035
2016-06-12 USATF Pacific Association Youth Championship 800m 2:57.31 16th · 1st on team 126.3 -0.035
2016-06-12 USATF Pacific Association Youth Championship 1500m 6:10.24 18th · 1st on team 123.2 -0.035 PR SR
2016-05-29 32nd Annual Los Angeles Jets Invitational 400m 1:15.84 40th · 3rd on team -0.035 PR SR
2016-05-29 32nd Annual Los Angeles Jets Invitational 800m 3:05.5 29th · 1st on team 120.7 -0.035
2016-05-29 32nd Annual Los Angeles Jets Invitational 1500m 6:19.06 14th · 1st on team 120.3 -0.035
2016-05-15 3M USATF Youth T&F Meet 800m 2:55.49 12th · 1st on team 128.6 -0.028 PR ★R SR RSR
2016-05-15 3M USATF Youth T&F Meet 1500m 6:13.64 12th · 1st on team 123.1 -0.028 SR
2016-04-02 Sac Speed Factory USATF Youth T&F Meet 100m 17.16 55th · 6th on team -0.033 ★PR SR
2016-04-02 Sac Speed Factory USATF Youth T&F Meet 800m 3:06.94 8th · 1st on team 119.9 -0.033 SR RSR
2016-04-02 Sac Speed Factory USATF Youth T&F Meet 1500m 6:28.36 7th · 1st on team 117.7 -0.033 SR

2015 TF 117.7

Umoja (CA) · Grade -

Date Meet Event Result Place Rating Difficulty PR/SR Flags
2015-07-12 Hampton-Phillips Track Club 400m 1:23.19 12th · 5th on team -0.024 PR SR
2015-07-12 Hampton-Phillips Track Club 800m 3:17.5 5th · 2nd on team 114.9 -0.024
2015-07-12 Hampton-Phillips Track Club 1500m 6:19.82 5th · 1st on team 122.1 -0.024
2015-06-21 USATF Pacific Association Junior Olympic Championships 800m 3:09.63 15th · 2nd on team 118.6 -0.031
2015-06-21 USATF Pacific Association Junior Olympic Championships 400m 1:24.94 35th · 4th on team -0.031
2015-06-21 USATF Pacific Association Junior Olympic Championships 1500m 6:13.19 10th · 2nd on team 123.2 -0.031 PR R SR RSR
2015-05-31 PAC (Pacific Association Youth Champions 800m 3:18.74 29th · 2nd on team 114.1 -0.024
2015-05-31 PAC (Pacific Association Youth Champions 1500m 6:18.4 12th · 1st on team 122.4 -0.024 PR R SR RSR
2015-05-31 PAC (Pacific Association Youth Champions 400m 1:27.78 44th · 5th on team -0.024
2015-05-23 LA Jets 2015 Invitational 1500m 6:29.41 25th · 1st on team 117.4 -0.035
2015-05-23 LA Jets 2015 Invitational 400m 1:29.35 83rd · 2nd on team -0.035
2015-05-23 LA Jets 2015 Invitational 800m 3:22.89 35th · 1st on team 110.4 -0.035
2015-05-16 3M Track Club Track and Field Invitation 400m 1:23.42 27th · 3rd on team -0.028 PR SR
2015-05-16 3M Track Club Track and Field Invitation 1500m 6:25.19 11th · 2nd on team 119.8 -0.028 PR R SR RSR
2015-05-16 3M Track Club Track and Field Invitation 800m 3:05.37 15th · 2nd on team 121.9 -0.028 PR R SR RSR
2015-05-02 Running Rebels/Top Pacers Invitational 400m 1:27.57 33rd · 3rd on team -0.038 PR SR
2015-05-02 Running Rebels/Top Pacers Invitational 200m 36.35 38th · 3rd on team -0.038 ★PR SR
2015-05-02 Running Rebels/Top Pacers Invitational 800m 3:08.83 13th · 2nd on team 118.3 -0.038 PR R SR RSR
2015-04-18 Shor/Sheppard Invitational 800m 3:19.42 16th · 4th on team 113.8 -0.022 R RSR
2015-04-18 Shor/Sheppard Invitational 400m 1:31.06 16th · 5th on team -0.022
2015-04-18 Shor/Sheppard Invitational 200m 37.58 41st · 5th on team -0.022 PR SR
2015-04-04 Sacramento Speed Factory 800m 3:17.49 16th · 1st on team 113.8 -0.033 R SR RSR
2015-04-04 Sacramento Speed Factory 200m 39.34 33rd · 1st on team -0.033 SR
2015-04-04 Sacramento Speed Factory 400m 1:28.3 43rd · 2nd on team -0.033 PR SR
2015-03-21 RPM Legacy 400m 1:31.1 66th · 3rd on team -0.020 SR
2015-03-21 RPM Legacy 100m 18.09 87th · 3rd on team -0.020 PR SR

2014 TF 99.1

Umoja (CA) · Grade -

Date Meet Event Result Place Rating Difficulty PR/SR Flags
2014-06-20 USATF Pacific Assoc. Junior Olympics (Top 8) 800m 3:16.08 4th · 1st on team 102.3 -0.031 PR R SR RSR
2014-06-20 USATF Pacific Assoc. Junior Olympics (Top 8) 200m 37.82 29th · 5th on team -0.031 PR SR
2014-06-20 USATF Pacific Assoc. Junior Olympics (Top 8) 400m 1:30.14 22nd · 5th on team -0.031
2014-05-31 Pacific Association Championships (PAC) 200m 38.44 32nd · 3rd on team -0.024 PR SR
2014-05-25 Los Angeles Jets Invitational 400m 1:30.26 37th · 2nd on team -0.028
2014-05-18 3M Invitational 400m 1:30.01 12th · 1st on team -0.028 PR SR
2014-04-19 3rd Annual Shor/Sheppard Classic Meet 400m 1:33.11 8th · 2nd on team -0.022 PR SR
2014-04-05 Sacramento Speed Showcase 200m 41.44 21st · 3rd on team -0.033 PR SR
2014-04-05 Sacramento Speed Showcase 400m 1:34.04 19th · 4th on team -0.033 PR SR
2014-04-05 Sacramento Speed Showcase 100m 18.57 30th · 1st on team -0.033 PR SR
2014-03-22 RPM 100m 21.54 66th · 4th on team -0.012 PR SR
2014-03-22 RPM 800m 3:32.7 4th · 1st on team 96.0 -0.012 PR R SR RSR
2014-03-22 RPM 400m 1:41.94 27th · 4th on team -0.012 PR SR